X  Κλείσε Στοιχεία αεροπορικών μετεωρολογικών δεδομένων METAR     LYNI Nis Airport
θερμοκρασία
41°F θερμοκρασία
30°F Σημείο δρόσου
66% Υγρασία



Ανεμος
6 MPH
10 KM/H
3 M/S
5 KTS



300°
DVD
Τρέχουσες συνθήκες

Μερικώς συννεφιασμένος Μερικώς συννεφιασμένος
πίεση 1018.92 (hPa) - 30.09 (inHg)
Ορατότητα 6.2 (μίλι) - 10 (km)
Aεροδρόμιο
Κωδικός αεροδρομίου LYNI

Τοποθεσία: Nis Airport
Απόσταση: 63 (mi)

Metar:
LYNI 012200Z 30005KT 9999 FEW060 05/M01 Q1019 NOSIG

ώρα: 01-02-2023 23:00 CET